Time;durP1;ratioP1;P1;durP2;ratioP2;P2;SDS_P1;SDS_P2;PMS_P1;PMS_P2;Temp;Humidity;BMP_temperature;BMP_pressure;BME280_temperature;BME280_humidity;BME280_pressure;Samples;Min_cycle;Max_cycle;Signal;HPM_P1;HPM_P2
2023/12/15 00:01:05;;;;;;;50.53;26.30;;;2.40;96.50;;;;;;4959088;28;20260;-92
2023/12/15 00:03:31;;;;;;;56.33;27.33;;;2.40;96.50;;;;;;4958574;28;20197;-91
2023/12/15 00:05:59;;;;;;;67.07;32.00;;;2.40;96.50;;;;;;4959180;28;20183;-91
2023/12/15 00:08:24;;;;;;;58.00;33.07;;;2.50;96.50;;;;;;4958856;28;20560;-91
2023/12/15 00:10:50;;;;;;;55.30;27.37;;;2.50;96.50;;;;;;4974561;28;20210;-92
2023/12/15 00:13:16;;;;;;;57.73;28.13;;;2.50;96.50;;;;;;4958376;28;20534;-91
2023/12/15 00:15:42;;;;;;;61.77;27.90;;;2.50;96.50;;;;;;4958306;28;20211;-90
2023/12/15 00:18:08;;;;;;;58.57;28.00;;;2.50;96.50;;;;;;4957337;28;20186;-90
2023/12/15 00:20:34;;;;;;;64.77;29.03;;;2.50;96.50;;;;;;4958241;28;20285;-91
2023/12/15 00:22:59;;;;;;;67.40;29.80;;;2.50;96.50;;;;;;4959083;28;20210;-92
2023/12/15 00:25:25;;;;;;;62.37;30.17;;;2.60;96.50;;;;;;4958260;28;20206;-90
2023/12/15 00:27:50;;;;;;;61.73;29.00;;;2.60;96.60;;;;;;4958184;28;20177;-91
2023/12/15 00:30:16;;;;;;;59.93;28.90;;;2.60;96.50;;;;;;4958027;28;20199;-91
2023/12/15 00:32:42;;;;;;;60.67;28.73;;;2.60;96.50;;;;;;4958012;28;20658;-91
2023/12/15 00:35:08;;;;;;;60.53;29.73;;;2.60;96.50;;;;;;4958043;28;20181;-90
2023/12/15 00:37:33;;;;;;;69.63;29.27;;;2.60;96.50;;;;;;4958348;28;20197;-90
2023/12/15 00:39:59;;;;;;;74.50;36.50;;;2.60;96.50;;;;;;4958343;28;20224;-90
2023/12/15 00:42:24;;;;;;;64.87;35.53;;;2.70;96.50;;;;;;4957824;28;20192;-90
2023/12/15 00:44:50;;;;;;;71.93;35.90;;;2.60;96.50;;;;;;4957988;28;20280;-91
2023/12/15 00:47:16;;;;;;;71.57;35.83;;;2.60;96.50;;;;;;4973934;28;20185;-90
2023/12/15 00:49:41;;;;;;;70.87;34.90;;;2.70;96.50;;;;;;4957698;28;20225;-90
2023/12/15 00:52:07;;;;;;;63.73;35.47;;;2.70;96.50;;;;;;4957833;28;20674;-91
2023/12/15 00:54:33;;;;;;;72.07;35.17;;;2.70;96.50;;;;;;4957590;28;20679;-91
2023/12/15 00:56:59;;;;;;;69.40;35.57;;;2.70;96.50;;;;;;4958104;28;20184;-91
2023/12/15 00:59:26;;;;;;;69.43;35.87;;;2.80;96.50;;;;;;4957451;28;20634;-91
2023/12/15 01:01:51;;;;;;;69.33;37.50;;;2.80;96.60;;;;;;4957867;28;20212;-91
2023/12/15 01:04:17;;;;;;;66.07;36.43;;;2.80;96.50;;;;;;4957530;28;20218;-92
2023/12/15 01:06:43;;;;;;;64.53;35.10;;;2.80;96.50;;;;;;4957439;28;20183;-91
2023/12/15 01:09:08;;;;;;;67.03;36.23;;;2.80;96.50;;;;;;4957386;28;20203;-91
2023/12/15 01:11:34;;;;;;;62.67;30.23;;;2.90;96.60;;;;;;4957434;28;20289;-90
2023/12/15 01:13:59;;;;;;;54.10;30.17;;;2.90;96.50;;;;;;4957401;28;20643;-91
2023/12/15 01:16:25;;;;;;;65.83;28.40;;;2.90;96.50;;;;;;4974872;28;20179;-91
2023/12/15 01:18:51;;;;;;;67.23;33.60;;;2.90;96.50;;;;;;4957005;28;20770;-91
2023/12/15 01:21:16;;;;;;;60.13;33.73;;;3.00;96.50;;;;;;4958203;28;20179;-91
2023/12/15 01:23:42;;;;;;;63.33;33.30;;;3.00;96.50;;;;;;4957350;28;20301;-91
2023/12/15 01:26:07;;;;;;;53.50;26.50;;;3.10;96.40;;;;;;4957391;28;20226;-92
2023/12/15 01:28:33;;;;;;;56.57;26.97;;;3.10;96.40;;;;;;4972822;28;20195;-91
2023/12/15 01:31:01;;;;;;;58.00;32.73;;;3.10;96.40;;;;;;4957172;28;20201;-92
2023/12/15 01:33:27;;;;;;;65.93;34.53;;;3.10;96.40;;;;;;4973298;28;20179;-91
2023/12/15 01:35:53;;;;;;;63.27;32.87;;;3.10;96.30;;;;;;4956881;28;20179;-91
2023/12/15 01:38:18;;;;;;;55.97;27.03;;;3.10;96.30;;;;;;4957374;28;20181;-91
2023/12/15 01:40:44;;;;;;;62.27;28.40;;;3.10;96.30;;;;;;4957158;28;20204;-91
2023/12/15 01:43:10;;;;;;;66.47;32.63;;;3.10;96.20;;;;;;4957151;28;20559;-90
2023/12/15 01:45:35;;;;;;;69.63;33.90;;;3.10;96.20;;;;;;4973001;28;20235;-92
2023/12/15 01:48:01;;;;;;;60.80;33.53;;;3.20;96.20;;;;;;4957994;28;20693;-91
2023/12/15 01:50:27;;;;;;;58.33;29.13;;;3.20;96.20;;;;;;4973998;28;20203;-92
2023/12/15 01:52:53;;;;;;;62.40;30.17;;;3.10;96.20;;;;;;4957118;28;20609;-91
2023/12/15 01:55:18;;;;;;;62.20;33.67;;;3.20;96.20;;;;;;4956934;28;20198;-92
2023/12/15 01:57:44;;;;;;;70.10;34.90;;;3.20;96.20;;;;;;4956884;28;20201;-91
2023/12/15 02:00:10;;;;;;;66.77;35.10;;;3.20;96.10;;;;;;4956825;28;20207;-91
2023/12/15 02:02:36;;;;;;;59.10;29.50;;;3.20;96.10;;;;;;4956729;28;20222;-92
2023/12/15 02:05:02;;;;;;;65.23;30.27;;;3.30;96.10;;;;;;4957002;28;20222;-92
2023/12/15 02:07:28;;;;;;;64.73;32.30;;;3.20;96.10;;;;;;4972837;28;20379;-89
2023/12/15 02:09:55;;;;;;;57.43;31.97;;;3.30;96.10;;;;;;4956510;28;20297;-90
2023/12/15 02:12:20;;;;;;;58.07;32.53;;;3.30;96.00;;;;;;4957000;28;20185;-91
2023/12/15 02:14:46;;;;;;;54.43;27.60;;;3.30;96.00;;;;;;4956904;28;20267;-90
2023/12/15 02:17:12;;;;;;;58.30;28.90;;;3.30;96.00;;;;;;4956662;28;20179;-92
2023/12/15 02:19:38;;;;;;;60.13;29.93;;;3.30;96.00;;;;;;4956578;28;20208;-89
2023/12/15 02:22:03;;;;;;;58.63;27.13;;;3.30;96.00;;;;;;4956723;28;20196;-91
2023/12/15 02:24:29;;;;;;;53.77;27.27;;;3.30;96.00;;;;;;4957261;28;20190;-91
2023/12/15 02:26:55;;;;;;;54.37;28.47;;;3.40;96.00;;;;;;4956652;28;20630;-91
2023/12/15 02:29:21;;;;;;;57.57;26.93;;;3.40;95.90;;;;;;4956601;28;20210;-91
2023/12/15 02:31:46;;;;;;;60.13;28.37;;;3.40;95.90;;;;;;4956670;28;20198;-91
2023/12/15 02:34:12;;;;;;;61.30;29.00;;;3.50;95.90;;;;;;4956465;28;20210;-91
2023/12/15 02:36:38;;;;;;;58.07;28.80;;;3.50;95.80;;;;;;4956504;28;20670;-92
2023/12/15 02:39:03;;;;;;;57.77;28.40;;;3.40;95.80;;;;;;4956814;28;20206;-89
2023/12/15 02:41:32;;;;;;;57.43;29.10;;;3.50;95.80;;;;;;4958296;28;20175;-92
2023/12/15 02:43:58;;;;;;;61.23;34.97;;;3.50;95.80;;;;;;4960402;28;20627;-92
2023/12/15 02:46:24;;;;;;;58.97;33.13;;;3.50;95.70;;;;;;4960189;28;20188;-91
2023/12/15 02:48:49;;;;;;;58.20;32.63;;;3.50;95.70;;;;;;4959899;28;20206;-92
2023/12/15 02:51:26;;;;;;;62.13;36.27;;;3.50;95.70;;;;;;4959847;28;20204;-91
2023/12/15 02:53:51;;;;;;;56.93;33.30;;;3.60;95.70;;;;;;4977247;28;20237;-90
2023/12/15 02:56:17;;;;;;;59.53;32.47;;;3.60;95.60;;;;;;4959756;28;20180;-91
2023/12/15 02:58:42;;;;;;;58.33;32.97;;;3.60;95.60;;;;;;4959654;28;20227;-91
2023/12/15 03:01:08;;;;;;;59.93;32.93;;;3.60;95.60;;;;;;4959855;28;20782;-91
2023/12/15 03:03:34;;;;;;;54.70;33.07;;;3.70;95.60;;;;;;4959685;28;20192;-90
2023/12/15 03:05:59;;;;;;;61.03;33.33;;;3.60;95.60;;;;;;4959663;28;20181;-89
2023/12/15 03:08:27;;;;;;;62.70;34.73;;;3.70;95.50;;;;;;4959418;28;20678;-90
2023/12/15 03:10:57;;;;;;;63.10;35.47;;;3.70;95.50;;;;;;4976749;28;20229;-90
2023/12/15 03:13:26;;;;;;;61.53;32.97;;;3.70;95.50;;;;;;4959605;28;20183;-90
2023/12/15 03:15:52;;;;;;;59.53;32.80;;;3.70;95.50;;;;;;4959769;28;20190;-91
2023/12/15 03:18:17;;;;;;;58.60;33.03;;;3.70;95.50;;;;;;4976708;28;20172;-90
2023/12/15 03:20:46;;;;;;;64.57;33.90;;;3.80;95.50;;;;;;4959481;28;20210;-91
2023/12/15 03:23:12;;;;;;;61.10;32.87;;;3.70;95.50;;;;;;4959376;28;20211;-91
2023/12/15 03:25:37;;;;;;;64.00;34.80;;;3.80;95.50;;;;;;4975437;28;20188;-91
2023/12/15 03:28:03;;;;;;;60.60;33.33;;;3.70;95.50;;;;;;4959229;28;20273;-91
2023/12/15 03:30:28;;;;;;;70.17;36.47;;;3.80;95.50;;;;;;4959290;28;20204;-91
2023/12/15 03:32:54;;;;;;;64.63;29.07;;;3.80;95.50;;;;;;4975286;28;20185;-90
2023/12/15 03:35:19;;;;;;;58.33;29.80;;;3.80;95.60;;;;;;4959376;28;20178;-91
2023/12/15 03:37:45;;;;;;;62.97;31.97;;;3.80;95.60;;;;;;4959177;28;20181;-91
2023/12/15 03:40:11;;;;;;;63.20;33.90;;;3.80;95.50;;;;;;4959454;28;20202;-90
2023/12/15 03:42:37;;;;;;;67.63;35.73;;;3.80;95.60;;;;;;4958968;28;20554;-90
2023/12/15 03:45:04;;;;;;;65.53;32.50;;;3.80;95.60;;;;;;4958888;28;20197;-91
2023/12/15 03:47:29;;;;;;;62.13;31.33;;;3.80;95.60;;;;;;4958907;28;20184;-90
2023/12/15 03:49:55;;;;;;;72.63;33.63;;;3.80;95.70;;;;;;4958837;28;20208;-91
2023/12/15 03:52:21;;;;;;;71.83;36.80;;;3.80;95.70;;;;;;4958717;28;20237;-90
2023/12/15 03:54:46;;;;;;;61.50;34.00;;;3.80;95.70;;;;;;4976258;28;20507;-91
2023/12/15 03:57:12;;;;;;;63.57;31.07;;;3.90;95.70;;;;;;4958592;28;20180;-92
2023/12/15 03:59:40;;;;;;;60.70;30.00;;;3.90;95.70;;;;;;4958683;28;20204;-90
2023/12/15 04:02:06;;;;;;;63.53;30.23;;;3.90;95.70;;;;;;4958619;28;20236;-91
2023/12/15 04:04:34;;;;;;;65.80;31.87;;;3.90;95.70;;;;;;4958882;28;20177;-91
2023/12/15 04:07:00;;;;;;;64.87;31.10;;;3.90;95.70;;;;;;4974567;28;20182;-90
2023/12/15 04:09:26;;;;;;;68.57;31.87;;;3.90;95.80;;;;;;4959006;28;20259;-91
2023/12/15 04:11:51;;;;;;;68.80;31.80;;;3.90;95.80;;;;;;4958813;28;20179;-91
2023/12/15 04:14:17;;;;;;;76.07;32.07;;;3.90;95.80;;;;;;4959353;28;20184;-91
2023/12/15 04:16:43;;;;;;;63.50;30.80;;;3.90;95.80;;;;;;4958303;28;20184;-90
2023/12/15 04:19:08;;;;;;;67.80;32.37;;;3.90;95.80;;;;;;4958331;28;20207;-90
2023/12/15 04:21:34;;;;;;;70.70;30.33;;;4.00;95.80;;;;;;4958368;28;20289;-90
2023/12/15 04:24:00;;;;;;;72.90;33.20;;;3.90;95.80;;;;;;4958056;28;20217;-91
2023/12/15 04:26:25;;;;;;;68.50;32.67;;;3.90;95.90;;;;;;4974559;28;20281;-91
2023/12/15 04:28:51;;;;;;;74.27;37.17;;;4.00;95.90;;;;;;4958436;28;20202;-91
2023/12/15 04:31:17;;;;;;;76.20;38.77;;;4.00;96.00;;;;;;4957900;28;20219;-90
2023/12/15 04:33:42;;;;;;;76.93;37.20;;;4.00;96.10;;;;;;4958028;28;20179;-90
2023/12/15 04:36:08;;;;;;;79.30;40.20;;;4.00;96.10;;;;;;4958010;28;20535;-92
2023/12/15 04:38:35;;;;;;;76.43;38.63;;;4.00;96.20;;;;;;4958737;28;20607;-90
2023/12/15 04:41:01;;;;;;;81.30;41.80;;;4.00;96.20;;;;;;4957884;28;20558;-91
2023/12/15 04:43:27;;;;;;;91.47;40.40;;;4.00;96.20;;;;;;4958168;28;20185;-90
2023/12/15 04:45:52;;;;;;;89.47;38.67;;;4.00;96.30;;;;;;4974068;28;20183;-90
2023/12/15 04:48:18;;;;;;;91.37;37.27;;;4.00;96.30;;;;;;4957742;28;20179;-91
2023/12/15 04:50:43;;;;;;;81.87;37.10;;;4.10;96.30;;;;;;4958395;28;20210;-90
2023/12/15 04:53:09;;;;;;;90.97;41.43;;;4.10;96.40;;;;;;4957590;28;20643;-91
2023/12/15 04:55:34;;;;;;;82.50;37.97;;;4.10;96.40;;;;;;4958520;28;20178;-89
2023/12/15 04:58:00;;;;;;;87.27;35.93;;;4.20;96.50;;;;;;4957550;28;20193;-91
2023/12/15 05:00:26;;;;;;;86.10;37.80;;;4.20;96.50;;;;;;4957743;28;20206;-91
2023/12/15 05:02:51;;;;;;;90.33;39.23;;;4.20;96.60;;;;;;4975220;28;20181;-91
2023/12/15 05:05:18;;;;;;;83.13;33.80;;;4.20;96.60;;;;;;4957055;28;20177;-90
2023/12/15 05:07:44;;;;;;;94.43;36.40;;;4.20;96.60;;;;;;4973537;28;20181;-89
2023/12/15 05:10:09;;;;;;;86.53;34.60;;;4.20;96.60;;;;;;4973439;28;20286;-91
2023/12/15 05:12:36;;;;;;;102.00;42.03;;;4.30;96.70;;;;;;4974760;28;20173;-92
2023/12/15 05:15:03;;;;;;;97.27;41.50;;;4.30;96.70;;;;;;4957311;28;20228;-92
2023/12/15 05:17:29;;;;;;;89.00;36.53;;;4.30;96.70;;;;;;4957333;28;20192;-91
2023/12/15 05:19:54;;;;;;;89.47;35.83;;;4.30;96.70;;;;;;4957413;28;20292;-90
2023/12/15 05:22:20;;;;;;;93.93;36.50;;;4.30;96.70;;;;;;4957288;28;20612;-91
2023/12/15 05:24:45;;;;;;;96.70;39.77;;;4.40;96.70;;;;;;4957544;28;20183;-91
2023/12/15 05:27:11;;;;;;;100.47;43.77;;;4.30;96.70;;;;;;4957314;28;20236;-91
2023/12/15 05:29:45;;;;;;;104.20;38.40;;;4.30;96.70;;;;;;4957185;28;20299;-91
2023/12/15 05:32:11;;;;;;;105.27;39.87;;;4.30;96.70;;;;;;4957355;28;20178;-90
2023/12/15 05:34:37;;;;;;;95.87;34.50;;;4.40;96.80;;;;;;4957839;28;20616;-92
2023/12/15 05:37:03;;;;;;;104.97;37.20;;;4.40;96.80;;;;;;4959109;28;20197;-92
2023/12/15 05:39:28;;;;;;;114.87;41.57;;;4.40;96.80;;;;;;4959407;28;20304;-92
2023/12/15 05:41:54;;;;;;;119.13;41.83;;;4.40;96.80;;;;;;4959360;28;20252;-92
2023/12/15 05:44:19;;;;;;;117.07;40.03;;;4.40;96.80;;;;;;4959557;28;20548;-92
2023/12/15 05:46:45;;;;;;;104.07;37.13;;;4.40;96.80;;;;;;4959323;28;20201;-93
2023/12/15 05:49:10;;;;;;;126.40;43.10;;;4.40;96.90;;;;;;4959991;28;20222;-93
2023/12/15 05:51:37;;;;;;;132.77;41.53;;;4.50;97.00;;;;;;4959635;28;20178;-92
2023/12/15 05:54:03;;;;;;;125.27;41.27;;;4.50;97.00;;;;;;4976739;28;20182;-92
2023/12/15 05:56:29;;;;;;;141.67;45.23;;;4.50;97.00;;;;;;4959659;28;20274;-92
2023/12/15 05:58:56;;;;;;;140.53;45.37;;;4.50;97.00;;;;;;4975528;28;20295;-92
2023/12/15 06:01:21;;;;;;;150.50;46.03;;;4.50;97.00;;;;;;4959463;28;20310;-92
2023/12/15 06:03:47;;;;;;;152.27;47.13;;;4.50;97.00;;;;;;4959493;28;20211;-92
2023/12/15 06:06:13;;;;;;;130.17;42.07;;;4.50;97.10;;;;;;4958292;28;20216;-92
2023/12/15 06:08:38;;;;;;;163.00;48.90;;;4.40;97.10;;;;;;4957573;28;20648;-90
2023/12/15 06:11:04;;;;;;;162.10;50.70;;;4.50;97.10;;;;;;4960359;28;20576;-91
2023/12/15 06:13:29;;;;;;;174.43;54.63;;;4.50;97.10;;;;;;4958253;28;20728;-91
2023/12/15 06:15:55;;;;;;;202.13;53.97;;;4.50;97.10;;;;;;4959189;28;20272;-92
2023/12/15 06:18:20;;;;;;;190.90;51.87;;;4.50;97.10;;;;;;4962433;28;20230;-90
2023/12/15 06:20:46;;;;;;;199.43;53.23;;;4.50;97.10;;;;;;4963665;28;20196;-93
2023/12/15 06:23:12;;;;;;;222.37;53.87;;;4.50;97.20;;;;;;4964043;28;20189;-92
2023/12/15 06:25:37;;;;;;;214.90;51.30;;;4.50;97.20;;;;;;4980798;28;20179;-92
2023/12/15 06:28:03;;;;;;;189.93;53.27;;;4.50;97.20;;;;;;4979382;28;20565;-92
2023/12/15 06:30:28;;;;;;;202.83;49.23;;;4.50;97.30;;;;;;4962142;28;20232;-92
2023/12/15 06:32:54;;;;;;;211.63;51.17;;;4.50;97.30;;;;;;4964235;28;20185;-92
2023/12/15 06:35:19;;;;;;;264.97;63.77;;;4.50;97.30;;;;;;4963973;28;20425;-93
2023/12/15 06:37:45;;;;;;;268.23;56.70;;;4.50;97.30;;;;;;4965507;28;20190;-92
2023/12/15 06:40:13;;;;;;;255.20;59.13;;;4.50;97.40;;;;;;4982075;28;20194;-91
2023/12/15 06:42:39;;;;;;;190.23;46.87;;;4.50;97.40;;;;;;4979842;28;20717;-93
2023/12/15 06:45:07;;;;;;;250.90;55.90;;;4.60;97.40;;;;;;4962260;28;20269;-92
2023/12/15 06:47:35;;;;;;;222.57;55.07;;;4.50;97.40;;;;;;4962231;28;20254;-92
2023/12/15 06:50:00;;;;;;;204.57;51.83;;;4.50;97.40;;;;;;4962637;28;20213;-92
2023/12/15 06:52:26;;;;;;;210.40;51.27;;;4.60;97.50;;;;;;4961565;28;20528;-92
2023/12/15 06:54:51;;;;;;;237.33;53.07;;;4.60;97.50;;;;;;4980294;28;20178;-91
2023/12/15 06:57:17;;;;;;;208.57;50.63;;;4.60;97.50;;;;;;4963296;28;20186;-92
2023/12/15 06:59:42;;;;;;;218.60;51.60;;;4.70;97.50;;;;;;4978428;28;20209;-91
2023/12/15 07:02:08;;;;;;;251.97;59.20;;;4.60;97.50;;;;;;4963596;28;20189;-93
2023/12/15 07:04:34;;;;;;;261.93;60.10;;;4.70;97.50;;;;;;4964340;28;20178;-92
2023/12/15 07:06:59;;;;;;;245.00;53.40;;;4.70;97.60;;;;;;4963438;28;20182;-92
2023/12/15 07:09:25;;;;;;;247.80;56.87;;;4.70;97.50;;;;;;4961828;28;20236;-93
2023/12/15 07:11:50;;;;;;;210.10;51.20;;;4.70;97.60;;;;;;4962929;28;20218;-93
2023/12/15 07:14:16;;;;;;;234.00;55.63;;;4.70;97.60;;;;;;4979776;28;20185;-92
2023/12/15 07:16:41;;;;;;;220.07;50.20;;;4.80;97.60;;;;;;4963813;28;20193;-91
2023/12/15 07:19:07;;;;;;;207.90;51.70;;;4.80;97.60;;;;;;4962176;28;20552;-92
2023/12/15 07:21:33;;;;;;;212.53;53.03;;;4.80;97.70;;;;;;4961590;28;20191;-92
2023/12/15 07:23:59;;;;;;;246.50;57.57;;;4.80;97.60;;;;;;4961400;28;20523;-91
2023/12/15 07:26:24;;;;;;;255.87;58.43;;;4.80;97.60;;;;;;4968424;28;20265;-92
2023/12/15 07:28:50;;;;;;;248.33;58.93;;;4.80;97.60;;;;;;4970884;28;20237;-92
2023/12/15 07:31:15;;;;;;;201.40;48.33;;;4.80;97.60;;;;;;4970849;28;20308;-92
2023/12/15 07:33:41;;;;;;;239.33;58.37;;;4.80;97.60;;;;;;4982804;28;20197;-92
2023/12/15 07:36:07;;;;;;;206.30;55.53;;;4.80;97.60;;;;;;4961889;28;20206;-91
2023/12/15 07:38:33;;;;;;;206.00;53.10;;;4.80;97.60;;;;;;4963330;28;20185;-92
2023/12/15 07:40:58;;;;;;;238.17;57.93;;;4.80;97.70;;;;;;4962665;28;20576;-89
2023/12/15 07:43:24;;;;;;;226.43;56.10;;;4.90;97.70;;;;;;4961318;28;20228;-91
2023/12/15 07:45:49;;;;;;;227.60;55.33;;;4.90;97.70;;;;;;4960879;28;20201;-90
2023/12/15 07:48:15;;;;;;;240.53;59.00;;;4.90;97.70;;;;;;4962316;28;20181;-91
2023/12/15 07:50:40;;;;;;;252.80;59.70;;;4.90;97.70;;;;;;4963216;28;20593;-93
2023/12/15 07:53:06;;;;;;;250.73;61.70;;;4.90;97.70;;;;;;4961736;28;20185;-90
2023/12/15 07:55:31;;;;;;;236.33;59.50;;;4.90;97.70;;;;;;4976715;28;20709;-92
2023/12/15 07:57:57;;;;;;;228.70;58.97;;;4.90;97.70;;;;;;4976698;28;20194;-91
2023/12/15 08:00:23;;;;;;;238.53;60.93;;;5.00;97.70;;;;;;4976821;28;20583;-92
2023/12/15 08:02:48;;;;;;;214.03;54.27;;;5.00;97.70;;;;;;4960783;28;20183;-91
2023/12/15 08:05:18;;;;;;;221.10;55.93;;;5.10;97.70;;;;;;4960247;28;20192;-91
2023/12/15 08:07:43;;;;;;;218.10;52.50;;;5.10;97.70;;;;;;4962942;28;20190;-91
2023/12/15 08:10:09;;;;;;;217.43;55.20;;;5.10;97.70;;;;;;4968236;28;20224;-93
2023/12/15 08:12:41;;;;;;;199.90;48.93;;;5.10;97.70;;;;;;4981151;28;20190;-94
2023/12/15 08:17:49;;;;;;;190.57;51.53;;;5.20;97.70;;;;;;5286307;23;20249;-92
2023/12/15 08:20:14;;;;;;;189.77;54.57;;;5.20;97.70;;;;;;4981197;28;20242;-93
2023/12/15 08:22:40;;;;;;;192.97;51.87;;;5.20;97.70;;;;;;4981100;28;20167;-95
2023/12/15 08:25:06;;;;;;;200.90;52.23;;;5.20;97.70;;;;;;4980017;28;20190;-93
2023/12/15 08:27:34;;;;;;;191.67;49.40;;;5.20;97.70;;;;;;4981605;28;20206;-93
2023/12/15 08:37:43;;;;;;;186.33;50.80;;;5.30;97.70;;;;;;5015861;28;20666;-92
2023/12/15 08:40:09;;;;;;;219.67;57.40;;;5.30;97.70;;;;;;4998696;28;20242;-93
2023/12/15 08:42:35;;;;;;;208.17;51.53;;;5.30;97.70;;;;;;4992312;28;20213;-93
2023/12/15 08:45:00;;;;;;;217.20;53.07;;;5.30;97.70;;;;;;5009722;28;20706;-92
2023/12/15 08:47:26;;;;;;;171.80;51.90;;;5.40;97.70;;;;;;5006722;28;20229;-93
2023/12/15 08:49:52;;;;;;;177.77;51.90;;;5.40;97.70;;;;;;5009263;28;20210;-92
2023/12/15 08:52:17;;;;;;;198.93;54.67;;;5.40;97.70;;;;;;5009212;28;20222;-93
2023/12/15 08:54:43;;;;;;;179.93;50.70;;;5.40;97.70;;;;;;5011797;28;20200;-91
2023/12/15 08:57:09;;;;;;;200.27;55.23;;;5.50;97.70;;;;;;4999577;28;20181;-92
2023/12/15 08:59:34;;;;;;;204.13;52.73;;;5.50;97.70;;;;;;5010061;28;20296;-93
2023/12/15 09:02:00;;;;;;;152.43;47.77;;;5.50;97.70;;;;;;5010164;28;20241;-92
2023/12/15 09:04:26;;;;;;;184.83;48.63;;;5.60;97.80;;;;;;4994199;28;20193;-93
2023/12/15 09:06:51;;;;;;;159.50;49.23;;;5.70;97.70;;;;;;5011232;28;20212;-92
2023/12/15 09:09:21;;;;;;;169.83;46.87;;;5.80;97.80;;;;;;5010967;28;20206;-91
2023/12/15 09:11:47;;;;;;;143.50;44.20;;;5.80;97.70;;;;;;5111232;23;20249;-93
2023/12/15 09:19:25;;;;;;;150.00;47.07;;;5.80;97.70;;;;;;5074492;23;20238;-93
2023/12/15 09:24:28;;;;;;;134.47;44.80;;;5.90;97.70;;;;;;5310266;23;20312;-95
2023/12/15 09:26:53;;;;;;;142.73;45.83;;;6.00;97.70;;;;;;4979001;28;20305;-94
2023/12/15 09:29:19;;;;;;;138.47;45.90;;;6.00;97.70;;;;;;4992452;28;20203;-94
2023/12/15 09:31:44;;;;;;;137.17;42.47;;;6.00;97.70;;;;;;5040453;23;20285;-92
2023/12/15 09:34:10;;;;;;;130.30;41.70;;;6.10;97.70;;;;;;4973999;28;20183;-91
2023/12/15 09:36:36;;;;;;;116.10;39.67;;;6.20;97.70;;;;;;5137523;23;20277;-93
2023/12/15 09:39:03;;;;;;;120.67;44.03;;;6.20;97.70;;;;;;4968474;28;20202;-93
2023/12/15 09:41:37;;;;;;;112.60;40.03;;;6.30;97.60;;;;;;4994498;28;20155;-94
2023/12/15 09:44:03;;;;;;;112.73;38.80;;;6.30;97.60;;;;;;4975063;28;20175;-93
2023/12/15 09:46:30;;;;;;;125.67;43.23;;;6.30;97.60;;;;;;4973837;28;20226;-94
2023/12/15 09:48:55;;;;;;;123.47;44.03;;;6.30;97.60;;;;;;4970837;28;20266;-94
2023/12/15 09:51:25;;;;;;;122.00;42.47;;;6.30;97.60;;;;;;4962086;28;20230;-93
2023/12/15 09:53:52;;;;;;;121.47;38.63;;;6.30;97.50;;;;;;4965291;28;20209;-93
2023/12/15 09:56:18;;;;;;;115.70;40.30;;;6.40;97.50;;;;;;4966888;28;20180;-93
2023/12/15 09:58:44;;;;;;;115.40;38.67;;;6.50;97.50;;;;;;4961549;28;20745;-92
2023/12/15 10:01:13;;;;;;;111.53;41.17;;;6.50;97.50;;;;;;4959312;28;20214;-92
2023/12/15 10:03:39;;;;;;;113.83;37.73;;;6.50;97.50;;;;;;4960950;28;20190;-92
2023/12/15 10:06:05;;;;;;;94.50;36.33;;;6.50;97.50;;;;;;4964546;28;20182;-93
2023/12/15 10:08:45;;;;;;;100.80;35.50;;;6.60;97.40;;;;;;4967989;28;20183;-93
2023/12/15 10:11:11;;;;;;;92.23;36.47;;;6.60;97.40;;;;;;4964389;28;20620;-93
2023/12/15 10:13:39;;;;;;;97.57;33.60;;;6.60;97.30;;;;;;4966757;28;20179;-93
2023/12/15 10:16:05;;;;;;;88.13;30.90;;;6.60;97.30;;;;;;4979116;28;20191;-93
2023/12/15 10:18:31;;;;;;;82.80;32.63;;;6.70;97.30;;;;;;4960042;28;20190;-92
2023/12/15 10:20:57;;;;;;;70.03;29.60;;;6.70;97.20;;;;;;4957400;28;20183;-90
2023/12/15 10:23:30;;;;;;;92.23;33.80;;;6.80;97.20;;;;;;4974098;28;20214;-92
2023/12/15 10:26:00;;;;;;;91.17;29.20;;;6.80;97.10;;;;;;4959398;28;20181;-93
2023/12/15 10:28:26;;;;;;;85.77;33.13;;;6.80;97.00;;;;;;4959011;28;20186;-93
2023/12/15 10:30:51;;;;;;;85.40;33.53;;;6.90;97.00;;;;;;4958785;28;20297;-93
2023/12/15 10:33:18;;;;;;;87.50;33.07;;;6.90;97.00;;;;;;4958680;28;20182;-93
2023/12/15 10:35:50;;;;;;;94.20;34.27;;;6.90;97.00;;;;;;4958749;28;20265;-92
2023/12/15 10:38:16;;;;;;;100.83;35.23;;;6.90;96.90;;;;;;4960393;28;20248;-92
2023/12/15 10:40:42;;;;;;;91.50;34.93;;;6.90;96.90;;;;;;4956844;28;20230;-91
2023/12/15 10:43:09;;;;;;;81.17;32.80;;;6.90;96.80;;;;;;4967340;28;20167;-92
2023/12/15 10:45:35;;;;;;;76.23;31.83;;;6.90;96.80;;;;;;4975107;28;20182;-92
2023/12/15 10:48:01;;;;;;;77.53;29.43;;;6.90;96.80;;;;;;4959399;28;20601;-93
2023/12/15 10:50:29;;;;;;;72.30;29.80;;;7.00;96.70;;;;;;4958000;28;20242;-93
2023/12/15 10:52:55;;;;;;;76.93;29.50;;;6.90;96.70;;;;;;4960905;28;20246;-93
2023/12/15 10:55:25;;;;;;;69.83;31.37;;;7.00;96.60;;;;;;4958388;28;20195;-93
2023/12/15 10:57:50;;;;;;;71.10;29.43;;;7.00;96.60;;;;;;4960697;28;20181;-92
2023/12/15 11:00:17;;;;;;;60.97;28.80;;;7.00;96.60;;;;;;4961146;28;20289;-92
2023/12/15 11:02:48;;;;;;;72.73;29.07;;;7.00;96.50;;;;;;4979043;28;20596;-92
2023/12/15 11:05:15;;;;;;;72.77;29.47;;;7.00;96.50;;;;;;4977390;28;20625;-93
2023/12/15 11:07:41;;;;;;;74.97;31.70;;;7.00;96.50;;;;;;4960510;28;20194;-92
2023/12/15 11:10:09;;;;;;;71.80;28.70;;;7.00;96.50;;;;;;4960742;28;20207;-92
2023/12/15 11:12:42;;;;;;;80.70;27.83;;;7.00;96.50;;;;;;4977721;28;20229;-92
2023/12/15 11:15:09;;;;;;;79.07;28.90;;;7.10;96.50;;;;;;4977224;28;20167;-92
2023/12/15 11:17:41;;;;;;;55.97;24.60;;;7.10;96.50;;;;;;4961396;28;20186;-93
2023/12/15 11:20:21;;;;;;;78.50;31.87;;;7.10;96.40;;;;;;4960842;28;20679;-92
2023/12/15 11:22:57;;;;;;;72.63;29.70;;;7.10;96.50;;;;;;4977893;28;20163;-92
2023/12/15 11:25:29;;;;;;;61.63;24.70;;;7.10;96.40;;;;;;4960937;28;20178;-92
2023/12/15 11:28:09;;;;;;;72.37;26.87;;;7.20;96.40;;;;;;4962544;28;20199;-92
2023/12/15 11:30:40;;;;;;;63.70;28.43;;;7.20;96.40;;;;;;4962982;28;20262;-92
2023/12/15 11:33:26;;;;;;;77.83;27.43;;;7.20;96.30;;;;;;4960997;28;20167;-93
2023/12/15 11:36:08;;;;;;;67.23;27.40;;;7.20;96.30;;;;;;4966187;28;20190;-92
2023/12/15 11:38:35;;;;;;;54.03;24.23;;;7.20;96.30;;;;;;4979568;28;20182;-92
2023/12/15 11:41:02;;;;;;;64.13;24.70;;;7.30;96.30;;;;;;4996585;28;20185;-92
2023/12/15 11:43:31;;;;;;;63.23;24.70;;;7.30;96.30;;;;;;4978793;28;20261;-93
2023/12/15 11:45:57;;;;;;;77.67;28.33;;;7.30;96.20;;;;;;4978894;28;20182;-93
2023/12/15 11:48:23;;;;;;;63.93;24.37;;;7.40;96.20;;;;;;4996936;28;20200;-91
2023/12/15 11:50:49;;;;;;;52.00;21.77;;;7.40;96.10;;;;;;4990675;28;20237;-93
2023/12/15 11:53:17;;;;;;;65.03;23.90;;;7.30;96.00;;;;;;4982055;28;20182;-93
2023/12/15 11:55:45;;;;;;;56.47;22.03;;;7.30;96.00;;;;;;4997551;28;20197;-93
2023/12/15 11:58:14;;;;;;;65.30;23.37;;;7.30;96.00;;;;;;4979773;28;20178;-93
2023/12/15 12:00:40;;;;;;;66.23;24.97;;;7.30;96.00;;;;;;4978946;28;20269;-92
2023/12/15 12:03:05;;;;;;;57.97;21.93;;;7.30;96.00;;;;;;4978814;28;20719;-93
2023/12/15 12:05:32;;;;;;;59.10;22.20;;;7.30;96.00;;;;;;4978742;28;20189;-93
2023/12/15 12:08:00;;;;;;;59.63;21.97;;;7.30;96.00;;;;;;4979036;28;20236;-92
2023/12/15 12:10:34;;;;;;;52.03;18.67;;;7.30;96.00;;;;;;4979306;28;20299;-92
2023/12/15 12:13:00;;;;;;;54.77;22.00;;;7.40;95.90;;;;;;4978459;28;20209;-92
2023/12/15 12:15:26;;;;;;;66.33;22.17;;;7.30;95.90;;;;;;4978619;28;20269;-94
2023/12/15 12:17:52;;;;;;;68.70;21.27;;;7.40;95.90;;;;;;4979138;28;20228;-93
2023/12/15 12:20:18;;;;;;;55.93;22.20;;;7.40;95.80;;;;;;4979502;28;20685;-92
2023/12/15 12:22:45;;;;;;;52.00;20.03;;;7.40;95.80;;;;;;4979457;28;20178;-92
2023/12/15 12:25:15;;;;;;;50.40;19.33;;;7.40;95.80;;;;;;4979511;28;20182;-93
2023/12/15 12:27:41;;;;;;;51.90;19.77;;;7.50;95.70;;;;;;4998080;28;20182;-93
2023/12/15 12:30:11;;;;;;;52.43;19.63;;;7.50;95.70;;;;;;4998699;28;20210;-93
2023/12/15 12:32:37;;;;;;;57.67;19.47;;;7.50;95.60;;;;;;4998960;28;20237;-93
2023/12/15 12:35:03;;;;;;;51.07;18.30;;;7.50;95.60;;;;;;4978551;28;20265;-93
2023/12/15 12:37:32;;;;;;;49.30;18.50;;;7.50;95.50;;;;;;4979039;28;20236;-93
2023/12/15 12:39:58;;;;;;;57.57;21.13;;;7.50;95.60;;;;;;4978667;28;20708;-93
2023/12/15 12:42:26;;;;;;;57.70;19.50;;;7.50;95.50;;;;;;4996144;28;20182;-93
2023/12/15 12:44:54;;;;;;;58.33;20.40;;;7.60;95.60;;;;;;4994706;28;20214;-92
2023/12/15 12:47:20;;;;;;;55.20;19.80;;;7.50;95.50;;;;;;4979615;28;20178;-93